Terminal Aerodrome Forecast
Issued by NWS Miami, FL

Current Version | Previous Version | Text Only | Print | Product List | Glossary On
Versions: 1 2 3 4 5 6 7 8 9 10 11 12 13 14 15 16 17 18 19 20 21 22 23 24 25 26 27 28 29 30 31 32 33 34 35 36 37 38 39 40 41 42 43 44 45 46
000
FTUS42 KMFL 060904 AAA
TAFPBI
TAF AMD
KPBI 060904Z 0609/0706 VRB02KT P6SM BKN035 BKN070
     FM061400 33008KT P6SM SCT035
     FM061700 02010KT P6SM VCSH BKN040
     FM070000 35008KT P6SM BKN035=

USA.gov is the U.S. government's official web portal to all federal, state and local government web resources and services.